createdAt,value
2018-08-28T00:00:48.443Z,0.00
2018-08-28T00:01:48.444Z,0.00
2018-08-28T00:02:48.476Z,0.00
2018-08-28T00:03:48.440Z,0.00
2018-08-28T00:04:48.433Z,0.00
2018-08-28T00:05:48.444Z,0.00
2018-08-28T00:06:48.443Z,0.00
2018-08-28T00:07:48.468Z,0.00
2018-08-28T00:08:48.444Z,0.00
2018-08-28T00:09:48.441Z,0.00
2018-08-28T00:10:48.437Z,0.00
2018-08-28T00:11:48.569Z,0.00
2018-08-28T00:12:48.471Z,0.00
2018-08-28T00:13:48.444Z,0.00
2018-08-28T00:14:48.442Z,0.00
2018-08-28T00:15:48.440Z,0.00
2018-08-28T00:16:48.439Z,0.00
2018-08-28T00:17:48.466Z,0.00
2018-08-28T00:18:48.442Z,0.00
2018-08-28T00:19:48.440Z,0.00
2018-08-28T00:20:48.439Z,0.00
2018-08-28T00:21:48.439Z,0.00
2018-08-28T00:22:48.468Z,0.00
2018-08-28T00:23:48.467Z,0.00
2018-08-28T00:24:48.439Z,0.00
2018-08-28T00:25:48.439Z,0.00
2018-08-28T00:26:48.444Z,0.00
2018-08-28T00:27:48.460Z,0.00
2018-08-28T00:28:48.484Z,0.00
2018-08-28T00:29:48.454Z,0.00
2018-08-28T00:30:48.448Z,0.00
2018-08-28T00:31:48.452Z,0.00
2018-08-28T00:32:48.455Z,0.00
2018-08-28T00:33:48.481Z,0.00
2018-08-28T00:34:48.450Z,0.00
2018-08-28T00:35:48.450Z,0.00
2018-08-28T00:36:48.451Z,0.00
2018-08-28T00:37:48.452Z,0.00
2018-08-28T00:38:48.481Z,0.00
2018-08-28T00:39:48.454Z,0.00
2018-08-28T00:40:48.449Z,0.00
2018-08-28T00:41:48.455Z,0.00
2018-08-28T00:42:48.456Z,0.00
2018-08-28T00:43:48.479Z,0.00
2018-08-28T00:44:48.451Z,0.00
2018-08-28T00:45:48.451Z,0.00
2018-08-28T00:46:48.455Z,0.00
2018-08-28T00:47:48.450Z,0.00
2018-08-28T00:48:48.483Z,0.00
2018-08-28T00:49:48.448Z,0.00
2018-08-28T00:50:48.452Z,0.00
2018-08-28T00:51:48.448Z,0.00
2018-08-28T00:52:48.452Z,0.00
2018-08-28T00:53:48.482Z,0.00
2018-08-28T00:54:48.455Z,0.00
2018-08-28T00:55:48.448Z,0.00
2018-08-28T00:56:48.452Z,0.00
2018-08-28T00:57:48.453Z,0.00
2018-08-28T00:58:48.478Z,0.00
2018-08-28T00:59:48.450Z,0.00
2018-08-28T01:00:48.455Z,0.00
2018-08-28T01:01:48.449Z,0.00
2018-08-28T01:02:48.454Z,0.00
2018-08-28T01:03:48.481Z,0.00
2018-08-28T01:04:48.454Z,0.00
2018-08-28T01:05:48.450Z,0.00
2018-08-28T01:06:48.453Z,0.00
2018-08-28T01:07:48.450Z,0.00
2018-08-28T01:08:48.473Z,0.00
2018-08-28T01:09:48.454Z,0.00
2018-08-28T01:10:48.454Z,0.00
2018-08-28T01:11:48.447Z,0.00
2018-08-28T01:12:48.450Z,0.00
2018-08-28T01:13:48.479Z,0.00
2018-08-28T01:14:48.459Z,0.00
2018-08-28T01:15:48.452Z,0.00
2018-08-28T01:16:48.448Z,0.00
2018-08-28T01:17:48.448Z,0.00
2018-08-28T01:18:48.477Z,0.00
2018-08-28T01:19:48.450Z,0.00
2018-08-28T01:20:48.455Z,0.00
2018-08-28T01:21:48.453Z,0.00
2018-08-28T01:22:48.450Z,0.00
2018-08-28T01:23:48.477Z,0.00
2018-08-28T01:24:48.456Z,0.00
2018-08-28T01:25:48.452Z,0.00
2018-08-28T01:26:48.449Z,0.00
2018-08-28T01:27:48.451Z,0.00
2018-08-28T01:28:48.482Z,0.00
2018-08-28T01:29:48.453Z,0.00
2018-08-28T01:30:48.449Z,0.00
2018-08-28T01:31:48.457Z,0.00
2018-08-28T01:32:48.456Z,0.00
2018-08-28T01:33:48.482Z,0.00
2018-08-28T01:34:48.454Z,0.00
2018-08-28T01:35:48.453Z,0.00
2018-08-28T01:36:48.447Z,0.00
2018-08-28T01:37:48.448Z,0.00
2018-08-28T01:38:48.479Z,0.00
2018-08-28T01:39:48.451Z,0.00
2018-08-28T01:40:48.451Z,0.00
2018-08-28T01:41:48.451Z,0.00
2018-08-28T01:42:48.447Z,0.00
2018-08-28T01:43:48.479Z,0.00
2018-08-28T01:44:48.434Z,0.00
2018-08-28T01:45:48.438Z,0.00
2018-08-28T01:46:48.432Z,0.00
2018-08-28T01:47:48.432Z,0.00
2018-08-28T01:48:48.460Z,0.00
2018-08-28T01:49:48.433Z,0.00
2018-08-28T01:50:48.432Z,0.00
2018-08-28T01:51:48.566Z,0.00
2018-08-28T01:52:48.435Z,0.00
2018-08-28T01:53:48.461Z,0.00
2018-08-28T01:54:48.433Z,0.00
2018-08-28T01:55:48.430Z,0.00
2018-08-28T01:56:48.430Z,0.00
2018-08-28T01:57:48.429Z,0.00
2018-08-28T01:58:48.459Z,0.00
2018-08-28T01:59:48.429Z,0.00
2018-08-28T02:00:48.431Z,0.00
2018-08-28T02:01:48.426Z,0.00
2018-08-28T02:02:48.431Z,0.00
2018-08-28T02:03:48.455Z,0.00
2018-08-28T02:04:48.426Z,0.00
2018-08-28T02:05:48.431Z,0.00
2018-08-28T02:06:48.427Z,0.00
2018-08-28T02:07:48.432Z,0.00
2018-08-28T02:08:48.449Z,0.00
2018-08-28T02:09:48.420Z,0.00
2018-08-28T02:10:48.424Z,0.00
2018-08-28T02:11:48.424Z,0.00
2018-08-28T02:12:48.424Z,0.00
2018-08-28T02:13:48.450Z,0.00
2018-08-28T02:14:48.424Z,0.00
2018-08-28T02:15:48.425Z,0.00
2018-08-28T02:16:48.420Z,0.00
2018-08-28T02:17:48.449Z,0.00
2018-08-28T02:18:48.427Z,0.00
2018-08-28T02:19:48.424Z,0.00
2018-08-28T02:20:48.418Z,0.00
2018-08-28T02:21:48.421Z,0.00
2018-08-28T02:22:48.449Z,0.00
2018-08-28T02:23:48.422Z,0.00
2018-08-28T02:24:48.424Z,0.00
2018-08-28T02:25:48.421Z,0.00
2018-08-28T02:26:48.418Z,0.00
2018-08-28T02:27:48.419Z,0.00
2018-08-28T02:28:48.443Z,0.00
2018-08-28T02:29:48.422Z,0.00
2018-08-28T02:30:48.419Z,0.00
2018-08-28T02:31:48.537Z,0.00
2018-08-28T02:32:48.443Z,0.00
2018-08-28T02:33:48.416Z,0.00
2018-08-28T02:34:48.416Z,0.00
2018-08-28T02:35:48.441Z,0.00
2018-08-28T02:36:48.415Z,0.00
2018-08-28T02:37:48.416Z,0.00
2018-08-28T02:38:48.440Z,0.00
2018-08-28T02:39:48.412Z,0.00
2018-08-28T02:40:48.419Z,0.00
2018-08-28T02:41:48.412Z,0.00
2018-08-28T02:42:48.441Z,0.00
2018-08-28T02:43:48.413Z,0.00
2018-08-28T02:44:48.412Z,0.00
2018-08-28T02:45:48.413Z,0.00
2018-08-28T02:46:48.417Z,0.00
2018-08-28T02:47:48.437Z,0.00
2018-08-28T02:48:48.438Z,0.00
2018-08-28T02:49:48.411Z,0.00
2018-08-28T02:50:48.410Z,0.00
2018-08-28T02:51:48.412Z,0.00
2018-08-28T02:52:48.410Z,0.00
2018-08-28T02:53:48.438Z,0.00
2018-08-28T02:54:48.409Z,0.00
2018-08-28T02:55:48.473Z,0.00
2018-08-28T02:56:48.411Z,0.00
2018-08-28T02:57:48.403Z,0.00
2018-08-28T02:58:48.408Z,0.00
2018-08-28T02:59:48.439Z,0.00
2018-08-28T03:00:48.405Z,0.00
2018-08-28T03:01:48.405Z,0.00
2018-08-28T03:02:48.471Z,0.00
2018-08-28T03:03:48.410Z,0.00
2018-08-28T03:04:48.434Z,0.00
2018-08-28T03:05:48.408Z,0.00
2018-08-28T03:06:48.411Z,0.00
2018-08-28T03:07:48.408Z,0.00
2018-08-28T03:08:48.411Z,0.00
2018-08-28T03:09:48.435Z,0.00
2018-08-28T03:10:48.410Z,0.00
2018-08-28T03:11:48.622Z,0.00
2018-08-28T03:12:48.410Z,0.00
2018-08-28T03:13:48.408Z,0.00
2018-08-28T03:14:48.434Z,0.00
2018-08-28T03:15:48.431Z,0.00
2018-08-28T03:16:48.406Z,0.00
2018-08-28T03:17:48.413Z,0.00
2018-08-28T03:18:48.416Z,0.00
2018-08-28T03:19:48.434Z,0.00
2018-08-28T03:20:48.407Z,0.00
2018-08-28T03:21:48.407Z,0.00
2018-08-28T03:22:48.410Z,0.00
2018-08-28T03:23:48.411Z,0.00
2018-08-28T03:24:48.436Z,0.00
2018-08-28T03:25:48.408Z,0.00
2018-08-28T03:26:48.411Z,0.00
2018-08-28T03:27:48.412Z,0.00
2018-08-28T03:28:48.411Z,0.00
2018-08-28T03:29:48.433Z,0.00
2018-08-28T03:30:48.437Z,0.00
2018-08-28T03:31:48.412Z,0.00
2018-08-28T03:32:48.407Z,0.00
2018-08-28T03:33:48.413Z,0.00
2018-08-28T03:34:48.416Z,0.00
2018-08-28T03:35:48.447Z,0.00
2018-08-28T03:36:48.408Z,0.00
2018-08-28T03:37:48.411Z,0.00
2018-08-28T03:38:48.412Z,0.00
2018-08-28T03:39:48.415Z,0.00
2018-08-28T03:40:48.438Z,0.00
2018-08-28T03:41:48.412Z,0.00
2018-08-28T03:42:48.413Z,0.00
2018-08-28T03:43:48.409Z,0.00
2018-08-28T03:44:48.453Z,0.00
2018-08-28T03:45:48.464Z,0.00
2018-08-28T03:46:48.415Z,0.00
2018-08-28T03:47:48.411Z,0.00
2018-08-28T03:48:48.411Z,0.00
2018-08-28T03:49:48.416Z,0.00
2018-08-28T03:50:48.451Z,0.00
2018-08-28T03:51:48.486Z,4.00
2018-08-28T03:52:48.412Z,4.00
2018-08-28T03:53:48.424Z,0.00
2018-08-28T03:54:48.417Z,4.00
2018-08-28T03:55:48.446Z,4.00
2018-08-28T03:56:48.413Z,8.00
2018-08-28T03:57:48.412Z,8.00
2018-08-28T03:58:48.415Z,12.00
2018-08-28T03:59:48.412Z,16.00
2018-08-28T04:00:48.446Z,16.00
2018-08-28T04:01:48.412Z,16.00
2018-08-28T04:02:48.419Z,20.00
2018-08-28T04:03:48.456Z,24.00
2018-08-28T04:04:48.418Z,28.00
2018-08-28T04:05:48.444Z,40.00
2018-08-28T04:06:48.417Z,48.00
2018-08-28T04:07:48.414Z,60.00
2018-08-28T04:08:48.417Z,68.00
2018-08-28T04:09:48.414Z,80.00
2018-08-28T04:10:48.442Z,92.00
2018-08-28T04:11:48.413Z,108.00
2018-08-28T04:12:48.414Z,124.00
2018-08-28T04:13:48.415Z,140.00
2018-08-28T04:14:48.422Z,156.00
2018-08-28T04:15:48.443Z,176.00
2018-08-28T04:16:48.440Z,196.00
2018-08-28T04:17:48.416Z,220.00
2018-08-28T04:18:48.420Z,240.00
2018-08-28T04:19:48.416Z,268.00
2018-08-28T04:20:48.432Z,288.00
2018-08-28T04:21:48.440Z,316.00
2018-08-28T04:22:48.420Z,348.00
2018-08-28T04:23:48.422Z,376.00
2018-08-28T04:24:48.421Z,408.00
2018-08-28T04:25:48.417Z,432.00
2018-08-28T04:26:48.444Z,456.00
2018-08-28T04:27:48.417Z,476.00
2018-08-28T04:28:48.417Z,492.00
2018-08-28T04:29:48.417Z,508.00
2018-08-28T04:30:48.469Z,516.00
2018-08-28T04:31:48.445Z,540.00
2018-08-28T04:32:48.435Z,564.00
2018-08-28T04:33:48.416Z,572.00
2018-08-28T04:34:48.423Z,580.00
2018-08-28T04:35:48.426Z,592.00
2018-08-28T04:36:48.464Z,636.00
2018-08-28T04:37:48.417Z,712.00
2018-08-28T04:38:48.435Z,820.00
2018-08-28T04:39:48.416Z,948.00
2018-08-28T04:40:48.420Z,1056.00
2018-08-28T04:41:48.474Z,1148.00
2018-08-28T04:42:48.415Z,1216.00
2018-08-28T04:43:48.417Z,1304.00
2018-08-28T04:44:48.420Z,1376.00
2018-08-28T04:45:48.417Z,1428.00
2018-08-28T04:46:48.451Z,1464.00
2018-08-28T04:47:48.417Z,1520.00
2018-08-28T04:48:48.461Z,1576.00
2018-08-28T04:49:48.418Z,1624.00
2018-08-28T04:50:48.417Z,1688.00
2018-08-28T04:51:48.446Z,1780.00
2018-08-28T04:52:48.422Z,1880.00
2018-08-28T04:53:48.419Z,1972.00
2018-08-28T04:54:48.444Z,2068.00
2018-08-28T04:55:48.421Z,2176.00
2018-08-28T04:56:48.689Z,2284.00
2018-08-28T04:57:48.425Z,2360.00
2018-08-28T04:58:48.419Z,2380.00
2018-08-28T04:59:48.418Z,2404.00
2018-08-28T05:00:48.493Z,2476.00
2018-08-28T05:01:48.448Z,2600.00
2018-08-28T05:02:48.418Z,2744.00
2018-08-28T05:03:48.420Z,2856.00
2018-08-28T05:04:48.422Z,2956.00
2018-08-28T05:05:48.456Z,3004.00
2018-08-28T05:06:48.420Z,3040.00
2018-08-28T05:07:48.474Z,3112.00
2018-08-28T05:08:48.985Z,3196.00
2018-08-28T05:09:48.417Z,3344.00
2018-08-28T05:10:48.420Z,3500.00
2018-08-28T05:11:48.505Z,3640.00
2018-08-28T05:12:48.418Z,3804.00
2018-08-28T05:13:48.421Z,3956.00
2018-08-28T05:14:48.421Z,4036.00
2018-08-28T05:15:48.562Z,4128.00
2018-08-28T05:16:48.425Z,4180.00
2018-08-28T05:17:48.424Z,4320.00
2018-08-28T05:18:48.422Z,4564.00
2018-08-28T05:19:48.425Z,4744.00
2018-08-28T05:20:48.451Z,4716.00
2018-08-28T05:21:48.422Z,4592.00
2018-08-28T05:22:48.423Z,4584.00
2018-08-28T05:23:48.423Z,4768.00
2018-08-28T05:24:48.428Z,5012.00
2018-08-28T05:25:48.453Z,5244.00
2018-08-28T05:26:48.425Z,5432.00
2018-08-28T05:27:48.427Z,5576.00
2018-08-28T05:28:48.456Z,5740.00
2018-08-28T05:29:48.428Z,5912.00
2018-08-28T05:30:48.456Z,6056.00
2018-08-28T05:31:48.432Z,6232.00
2018-08-28T05:32:48.460Z,6448.00
2018-08-28T05:33:48.428Z,6588.00
2018-08-28T05:34:48.436Z,6760.00
2018-08-28T05:35:48.429Z,6796.00
2018-08-28T05:36:48.456Z,6840.00
2018-08-28T05:37:48.432Z,6948.00
2018-08-28T05:38:48.432Z,7132.00
2018-08-28T05:39:48.428Z,7260.00
2018-08-28T05:40:48.428Z,7392.00
2018-08-28T05:41:48.486Z,7496.00
2018-08-28T05:42:49.990Z,7564.00
2018-08-28T05:43:48.438Z,7680.00
2018-08-28T05:44:48.435Z,7788.00
2018-08-28T05:45:48.432Z,7820.00
2018-08-28T05:46:49.632Z,7928.00
2018-08-28T05:47:50.831Z,8028.00
2018-08-28T05:48:49.490Z,8100.00
2018-08-28T05:49:48.434Z,8304.00
2018-08-28T05:50:48.440Z,8360.00
2018-08-28T05:51:48.474Z,8528.00
2018-08-28T05:52:48.438Z,8932.00
2018-08-28T05:53:51.517Z,9216.00
2018-08-28T05:54:49.082Z,9320.00
2018-08-28T05:55:48.534Z,9496.00
2018-08-28T05:56:48.649Z,9584.00
2018-08-28T05:57:48.572Z,9536.00
2018-08-28T05:58:49.023Z,9600.00
2018-08-28T05:59:48.660Z,9644.00
2018-08-28T06:00:48.452Z,9756.00
2018-08-28T06:01:48.480Z,9980.00
2018-08-28T06:02:50.120Z,10156.00
2018-08-28T06:03:49.554Z,10164.00
2018-08-28T06:04:49.325Z,10148.00
2018-08-28T06:06:52.494Z,10268.00
2018-08-28T06:07:51.693Z,10480.00
2018-08-28T06:08:48.734Z,10660.00
2018-08-28T06:09:49.496Z,10852.00
2018-08-28T06:10:49.583Z,11152.00
2018-08-28T06:11:48.496Z,11504.00
2018-08-28T06:12:49.131Z,11780.00
2018-08-28T06:13:53.375Z,11940.00
2018-08-28T06:14:48.932Z,12084.00
2018-08-28T06:15:50.002Z,12136.00
2018-08-28T06:16:54.032Z,12280.00
2018-08-28T06:17:48.472Z,12440.00
2018-08-28T06:18:48.469Z,12532.00
2018-08-28T06:19:48.476Z,12364.00
2018-08-28T06:20:48.477Z,12288.00
2018-08-28T06:21:48.500Z,12196.00
2018-08-28T06:22:48.473Z,12216.00
2018-08-28T06:23:48.476Z,12352.00
2018-08-28T06:24:48.478Z,12628.00
2018-08-28T06:25:48.476Z,12736.00
2018-08-28T06:26:48.504Z,12992.00
2018-08-28T06:27:48.492Z,13180.00
2018-08-28T06:28:48.480Z,13272.00
2018-08-28T06:29:48.486Z,13552.00
2018-08-28T06:30:48.485Z,13684.00
2018-08-28T06:31:48.517Z,13588.00
2018-08-28T06:32:48.490Z,13408.00
2018-08-28T06:33:48.505Z,13272.00
2018-08-28T06:34:48.494Z,13268.00
2018-08-28T06:35:48.494Z,13460.00
2018-08-28T06:36:48.521Z,13748.00
2018-08-28T06:37:48.499Z,14092.00
2018-08-28T06:38:48.510Z,14392.00
2018-08-28T06:39:48.503Z,14784.00
2018-08-28T06:40:48.506Z,15040.00
2018-08-28T06:41:48.531Z,15220.00
2018-08-28T06:42:48.513Z,15304.00
2018-08-28T06:43:48.554Z,15092.00
2018-08-28T06:44:48.513Z,14956.00
2018-08-28T06:45:48.516Z,15192.00
2018-08-28T06:46:48.555Z,15296.00
2018-08-28T06:47:48.520Z,15232.00
2018-08-28T06:48:48.520Z,15212.00
2018-08-28T06:49:48.524Z,15116.00
2018-08-28T06:50:48.532Z,15300.00
2018-08-28T06:51:48.558Z,15596.00
2018-08-28T06:52:48.529Z,15840.00
2018-08-28T06:53:48.540Z,16108.00
2018-08-28T06:54:48.533Z,16184.00
2018-08-28T06:55:48.536Z,16268.00
2018-08-28T06:56:48.586Z,16428.00
2018-08-28T06:57:48.542Z,16732.00
2018-08-28T06:58:48.548Z,17080.00
2018-08-28T06:59:49.143Z,17360.00
2018-08-28T07:00:48.551Z,17760.00
2018-08-28T07:01:48.582Z,17888.00
2018-08-28T07:02:48.558Z,17792.00
2018-08-28T07:03:48.562Z,17632.00
2018-08-28T07:04:48.560Z,17264.00
2018-08-28T07:05:48.595Z,17308.00
2018-08-28T07:06:48.566Z,17664.00
2018-08-28T07:07:48.580Z,17792.00
2018-08-28T07:08:48.597Z,17728.00
2018-08-28T07:09:48.571Z,17568.00
2018-08-28T07:10:48.576Z,17696.00
2018-08-28T07:11:48.608Z,18144.00
2018-08-28T07:12:48.588Z,18624.00
2018-08-28T07:13:48.584Z,19232.00
2018-08-28T07:14:48.588Z,19744.00
2018-08-28T07:15:48.585Z,20000.00
2018-08-28T07:16:48.621Z,20288.00
2018-08-28T07:17:48.599Z,20608.00
2018-08-28T07:18:48.649Z,20928.00
2018-08-28T07:19:48.600Z,21184.00
2018-08-28T07:20:48.605Z,21120.00
2018-08-28T07:21:48.639Z,21024.00
2018-08-28T07:22:48.613Z,20832.00
2018-08-28T07:23:48.615Z,20608.00
2018-08-28T07:24:48.615Z,20576.00
2018-08-28T07:25:48.726Z,20768.00
2018-08-28T07:26:48.654Z,21024.00
2018-08-28T07:27:48.633Z,21376.00
2018-08-28T07:28:48.662Z,21600.00
2018-08-28T07:29:48.633Z,22048.00
2018-08-28T07:30:48.638Z,22528.00
2018-08-28T07:31:48.744Z,23264.00
2018-08-28T07:32:48.671Z,23392.00
2018-08-28T07:33:48.656Z,23968.00
2018-08-28T07:34:48.658Z,23168.00
2018-08-28T07:35:48.661Z,23040.00
2018-08-28T07:36:48.660Z,23200.00
2018-08-28T07:37:48.696Z,23520.00
2018-08-28T07:38:48.671Z,23808.00
2018-08-28T07:39:48.672Z,23872.00
2018-08-28T07:40:48.673Z,23872.00
2018-08-28T07:41:48.685Z,24032.00
2018-08-28T07:42:48.716Z,24192.00
2018-08-28T07:43:48.693Z,24544.00
2018-08-28T07:44:48.696Z,24672.00
2018-08-28T07:45:48.697Z,24896.00
2018-08-28T07:46:48.709Z,25088.00
2018-08-28T07:47:48.739Z,25440.00
2018-08-28T07:48:48.723Z,25376.00
2018-08-28T07:49:48.722Z,25312.00
2018-08-28T07:50:48.720Z,25280.00
2018-08-28T07:51:48.726Z,25344.00
2018-08-28T07:52:48.755Z,25632.00
2018-08-28T07:53:48.748Z,26048.00
2018-08-28T07:54:48.746Z,26528.00
2018-08-28T07:55:48.746Z,26880.00
2018-08-28T07:56:48.755Z,27200.00
2018-08-28T07:57:48.784Z,27488.00
2018-08-28T07:58:48.762Z,27712.00
2018-08-28T07:59:48.769Z,27968.00
2018-08-28T08:00:48.777Z,28064.00
2018-08-28T08:01:48.776Z,29024.00
2018-08-28T08:02:48.808Z,27552.00
2018-08-28T08:03:48.788Z,27648.00
2018-08-28T08:04:48.792Z,27872.00
2018-08-28T08:05:48.796Z,27840.00
2018-08-28T08:06:48.807Z,28032.00
2018-08-28T08:07:48.837Z,28448.00
2018-08-28T08:08:48.812Z,28768.00
2018-08-28T08:09:48.824Z,29152.00
2018-08-28T08:10:48.825Z,29408.00
2018-08-28T08:11:48.833Z,29984.00
2018-08-28T08:12:48.867Z,33504.00
2018-08-28T08:13:48.839Z,30688.00
2018-08-28T08:14:48.849Z,30848.00
2018-08-28T08:15:49.008Z,30112.00
2018-08-28T08:16:48.860Z,29696.00
2018-08-28T08:17:48.894Z,29472.00
2018-08-28T08:18:48.908Z,29536.00
2018-08-28T08:19:48.878Z,29792.00
2018-08-28T08:20:48.886Z,30304.00
2018-08-28T08:21:48.908Z,30464.00
2018-08-28T08:22:48.898Z,31264.00
2018-08-28T08:23:48.935Z,32128.00
2018-08-28T08:24:48.907Z,32896.00
2018-08-28T08:25:48.914Z,33632.00
2018-08-28T08:26:48.923Z,35264.00
2018-08-28T08:27:48.951Z,34304.00
2018-08-28T08:28:48.959Z,34080.00
2018-08-28T08:29:48.941Z,33600.00
2018-08-28T08:30:48.951Z,32896.00
2018-08-28T08:31:48.953Z,32576.00
2018-08-28T08:32:48.961Z,32704.00
2018-08-28T08:33:48.992Z,32640.00
2018-08-28T08:34:48.977Z,32672.00
2018-08-28T08:35:48.981Z,32992.00
2018-08-28T08:36:48.987Z,33664.00
2018-08-28T08:37:49.001Z,34752.00
2018-08-28T08:38:49.029Z,35840.00
2018-08-28T08:39:49.010Z,36160.00
2018-08-28T08:40:49.014Z,36576.00
2018-08-28T08:41:49.078Z,35840.00
2018-08-28T08:42:49.027Z,35680.00
2018-08-28T08:43:49.070Z,35680.00
2018-08-28T08:44:49.052Z,35744.00
2018-08-28T08:45:49.055Z,35552.00
2018-08-28T08:46:49.063Z,35424.00
2018-08-28T08:47:49.073Z,35232.00
2018-08-28T08:48:49.103Z,35136.00
2018-08-28T08:49:49.091Z,35264.00
2018-08-28T08:50:49.095Z,35488.00
2018-08-28T08:51:49.099Z,36256.00
2018-08-28T08:52:49.108Z,36480.00
2018-08-28T08:53:49.158Z,36800.00
2018-08-28T08:54:49.179Z,37056.00
2018-08-28T08:55:49.136Z,37376.00
2018-08-28T08:56:49.142Z,37600.00
2018-08-28T08:57:49.148Z,37408.00
2018-08-28T08:58:49.184Z,37088.00
2018-08-28T08:59:49.173Z,37504.00
2018-08-28T09:00:49.177Z,38016.00
2018-08-28T09:01:49.188Z,38080.00
2018-08-28T09:02:49.221Z,38336.00
2018-08-28T09:03:49.201Z,38272.00
2018-08-28T09:04:49.238Z,38528.00
2018-08-28T09:05:49.216Z,38912.00
2018-08-28T09:06:49.236Z,38976.00
2018-08-28T09:07:49.239Z,39328.00
2018-08-28T09:08:49.274Z,41920.00
2018-08-28T09:09:49.254Z,44608.00
2018-08-28T09:10:49.270Z,40608.00
2018-08-28T09:11:49.270Z,41248.00
2018-08-28T09:12:49.278Z,43424.00
2018-08-28T09:13:49.331Z,43232.00
2018-08-28T09:14:49.302Z,46944.00
2018-08-28T09:15:49.316Z,43360.00
2018-08-28T09:16:49.327Z,47776.00
2018-08-28T09:17:49.339Z,46496.00
2018-08-28T09:18:49.376Z,42688.00
2018-08-28T09:19:49.394Z,42176.00
2018-08-28T09:20:49.372Z,41344.00
2018-08-28T09:21:49.385Z,43520.00
2018-08-28T09:22:49.394Z,41024.00
2018-08-28T09:23:49.432Z,41824.00
2018-08-28T09:24:49.416Z,44288.00
2018-08-28T09:25:49.431Z,43424.00
2018-08-28T09:26:49.452Z,42624.00
2018-08-28T09:27:49.457Z,55744.00
2018-08-28T09:28:49.493Z,53504.00
2018-08-28T09:29:50.126Z,54144.00
2018-08-28T09:30:49.553Z,45696.00
2018-08-28T09:31:49.503Z,49728.00
2018-08-28T09:32:49.518Z,43616.00
2018-08-28T09:33:49.558Z,42560.00
2018-08-28T09:34:49.544Z,43552.00
2018-08-28T09:35:49.554Z,47648.00
2018-08-28T09:36:49.569Z,44288.00
2018-08-28T09:37:50.860Z,44544.00
2018-08-28T09:38:53.623Z,46848.00
2018-08-28T09:39:54.915Z,47776.00
2018-08-28T09:40:49.623Z,57376.00
2018-08-28T09:41:49.636Z,50816.00
2018-08-28T09:42:49.649Z,48992.00
2018-08-28T09:43:49.729Z,55040.00
2018-08-28T09:44:49.681Z,47360.00
2018-08-28T09:45:49.688Z,60032.00
2018-08-28T09:46:49.710Z,54464.00
2018-08-28T09:47:49.733Z,52096.00
2018-08-28T09:48:49.765Z,43520.00
2018-08-28T09:49:49.753Z,52064.00
2018-08-28T09:50:49.821Z,50688.00
2018-08-28T09:51:49.772Z,43584.00
2018-08-28T09:52:49.785Z,42816.00
2018-08-28T09:53:49.834Z,43616.00
2018-08-28T09:54:49.819Z,44096.00
2018-08-28T09:55:49.830Z,52832.00
2018-08-28T09:56:49.846Z,55232.00
2018-08-28T09:57:52.058Z,54976.00
2018-08-28T09:58:49.904Z,55360.00
2018-08-28T09:59:50.558Z,55808.00
2018-08-28T10:00:49.901Z,56032.00
2018-08-28T10:01:49.919Z,58144.00
2018-08-28T10:02:49.936Z,59168.00
2018-08-28T10:03:49.980Z,58816.00
2018-08-28T10:04:50.054Z,58816.00
2018-08-28T10:05:49.994Z,62176.00
2018-08-28T10:06:50.000Z,64480.00
2018-08-28T10:07:50.033Z,48832.00
2018-08-28T10:08:50.058Z,40384.00
2018-08-28T10:09:50.058Z,63488.00
2018-08-28T10:10:50.113Z,42144.00
2018-08-28T10:11:50.087Z,65888.00
2018-08-28T10:12:50.101Z,68544.00
2018-08-28T10:13:50.146Z,61824.00
2018-08-28T10:14:50.142Z,55008.00
2018-08-28T10:15:50.150Z,57248.00
2018-08-28T10:16:50.166Z,58304.00
2018-08-28T10:17:50.186Z,62912.00
2018-08-28T10:18:50.230Z,78784.00
2018-08-28T10:19:50.225Z,54624.00
2018-08-28T10:20:50.236Z,43072.00
2018-08-28T10:21:50.255Z,42912.00
2018-08-28T10:22:50.287Z,42656.00
2018-08-28T10:23:50.310Z,39808.00
2018-08-28T10:24:50.300Z,37216.00
2018-08-28T10:25:50.316Z,37760.00
2018-08-28T10:26:50.332Z,46272.00
2018-08-28T10:27:50.345Z,53216.00
2018-08-28T10:28:50.388Z,36576.00
2018-08-28T10:29:50.389Z,36352.00
2018-08-28T10:30:50.400Z,37600.00
2018-08-28T10:31:50.496Z,51680.00
2018-08-28T10:32:50.414Z,56096.00
2018-08-28T10:33:50.449Z,90016.00
2018-08-28T10:34:50.441Z,99744.00
2018-08-28T10:35:50.456Z,95200.00
2018-08-28T10:36:50.467Z,96032.00
2018-08-28T10:37:50.473Z,94240.00
2018-08-28T10:38:50.532Z,91744.00
2018-08-28T10:39:50.506Z,93600.00
2018-08-28T10:40:50.526Z,95648.00
2018-08-28T10:41:50.534Z,90368.00
2018-08-28T10:42:50.556Z,87584.00
2018-08-28T10:43:50.591Z,46976.00
2018-08-28T10:44:50.578Z,62560.00
2018-08-28T10:45:50.632Z,52960.00
2018-08-28T10:46:50.759Z,99520.00
2018-08-28T10:49:22.289Z,94848.00
2018-08-28T10:50:22.273Z,93312.00
2018-08-28T10:51:22.288Z,88800.00
2018-08-28T10:52:22.308Z,93440.00
2018-08-28T10:53:22.316Z,96160.00
2018-08-28T10:54:22.376Z,97376.00
2018-08-28T10:55:22.355Z,60128.00
2018-08-28T10:56:22.668Z,36576.00
2018-08-28T10:57:22.573Z,35680.00
2018-08-28T10:58:24.725Z,45184.00
2018-08-28T10:59:22.458Z,88640.00
2018-08-28T11:00:22.438Z,82080.00
2018-08-28T11:01:22.458Z,88384.00
2018-08-28T11:02:23.597Z,82624.00
2018-08-28T11:03:22.492Z,92928.00
2018-08-28T11:04:22.548Z,91488.00
2018-08-28T11:05:22.522Z,91648.00
2018-08-28T11:06:22.545Z,93056.00
2018-08-28T11:07:22.561Z,93184.00
2018-08-28T11:08:22.575Z,90560.00
2018-08-28T11:09:22.755Z,95104.00
2018-08-28T11:10:22.607Z,94400.00
2018-08-28T11:11:22.623Z,96000.00
2018-08-28T11:12:22.657Z,96192.00
2018-08-28T11:13:22.657Z,95904.00
2018-08-28T11:14:22.700Z,95488.00
2018-08-28T11:15:22.692Z,93376.00
2018-08-28T11:16:22.710Z,90208.00
2018-08-28T11:17:22.729Z,57312.00
2018-08-28T11:18:22.754Z,91360.00
2018-08-28T11:19:22.797Z,89184.00
2018-08-28T11:20:22.785Z,92896.00
2018-08-28T11:21:22.807Z,93536.00
2018-08-28T11:22:22.850Z,93184.00
2018-08-28T11:23:22.871Z,38592.00
2018-08-28T11:24:22.853Z,64672.00
2018-08-28T11:25:22.879Z,35136.00
2018-08-28T11:26:22.897Z,38176.00
2018-08-28T11:27:22.912Z,63072.00
2018-08-28T11:28:22.961Z,90176.00
2018-08-28T11:29:22.944Z,94848.00
2018-08-28T11:30:22.968Z,99424.00
2018-08-28T11:31:23.045Z,96480.00
2018-08-28T11:32:23.033Z,97824.00
2018-08-28T11:33:23.017Z,102400.00
2018-08-28T11:34:23.065Z,105056.00
2018-08-28T11:35:23.057Z,106560.00
2018-08-28T11:36:23.073Z,100640.00
2018-08-28T11:37:23.094Z,99520.00
2018-08-28T11:38:23.186Z,101824.00
2018-08-28T11:39:23.161Z,101760.00
2018-08-28T11:40:23.153Z,99296.00
2018-08-28T11:41:23.166Z,99328.00
2018-08-28T11:42:23.186Z,95584.00
2018-08-28T11:43:23.209Z,97280.00
2018-08-28T11:44:23.265Z,99776.00
2018-08-28T11:45:23.247Z,99232.00
2018-08-28T11:46:23.266Z,98592.00
2018-08-28T11:47:23.279Z,100128.00
2018-08-28T11:48:23.298Z,105024.00
2018-08-28T11:49:23.359Z,99904.00
2018-08-28T11:50:23.342Z,97152.00
2018-08-28T11:51:23.363Z,97472.00
2018-08-28T11:52:23.390Z,98816.00
2018-08-28T11:53:23.475Z,100192.00
2018-08-28T11:54:23.444Z,99168.00
2018-08-28T11:55:23.441Z,103008.00
2018-08-28T11:56:23.784Z,104832.00
2018-08-28T11:57:23.478Z,100672.00
2018-08-28T11:58:23.863Z,98016.00
2018-08-28T11:59:23.517Z,101120.00
2018-08-28T12:00:23.538Z,98688.00
2018-08-28T12:01:23.557Z,98432.00
2018-08-28T12:02:23.603Z,101536.00
2018-08-28T12:03:23.648Z,101440.00
2018-08-28T12:04:23.647Z,98816.00
2018-08-28T12:05:23.691Z,98976.00
2018-08-28T12:06:23.666Z,89760.00
2018-08-28T12:07:23.765Z,100064.00
2018-08-28T12:08:23.688Z,94112.00
2018-08-28T12:09:27.154Z,96896.00
2018-08-28T12:10:23.732Z,100992.00
2018-08-28T12:11:23.750Z,97824.00
2018-08-28T12:12:23.772Z,99744.00
2018-08-28T12:13:23.793Z,100192.00
2018-08-28T12:14:23.843Z,100704.00
2018-08-28T12:15:23.828Z,97248.00
2018-08-28T12:16:23.847Z,47744.00
2018-08-28T12:17:23.869Z,38304.00
2018-08-28T12:18:23.889Z,37440.00
2018-08-28T12:19:23.935Z,40736.00
2018-08-28T12:20:23.978Z,40384.00